Ilona — VJN3432 — position and weather

sailwx.info

Track history (hours):
 
Tides and Currents Weather Stations Pressure Air Temp Water Temp Dewpoint Dewpoint Depression Visibility Wind Speed Wind Dir Waves Ship Positions

Ilona

Last reported at 2016-May-29 18:30 UTC. Time now 2016-May-30 10:40 UTC.
Position N 41°23' E 002°11'.

Length 74 m; draft 3.8 m.

Type: Pleasure craft. MMSI: 503514000.

Date/timePositionNaut miles runAvg speedWind from/ knotsBaromVisibWave heightAir tempDewpointWater temp
2016-May-29 18:30N 41°23' E 002°11'0 0.0
2016-May-29 17:30N 41°23' E 002°11'0 0.0
2016-May-28 23:06N 41°23' E 002°11'0 0.0
2016-May-28 20:06N 41°23' E 002°11'10 0.6
2016-May-28 03:21N 41°13' E 002°11'1114.1
2016-May-28 02:33N 41°02' E 002°09'1413.8
2016-May-28 01:33N 40°48' E 002°06'1413.9
2016-May-28 00:33N 40°35' E 002°02'1414.0
2016-May-27 23:33N 40°21' E 001°58'1414.1
2016-May-27 22:33N 40°07' E 001°54'1414.0
2016-May-27 21:33N 39°53' E 001°51'1614.8
2016-May-27 20:27N 39°37' E 001°47'1415.4
2016-May-27 19:33N 39°24' E 001°43'1514.9
2016-May-27 18:33N 39°09' E 001°39'7 6.0
2016-May-27 17:23N 39°02' E 001°37'0 0.0
2016-May-27 16:26N 39°02' E 001°37'0 0.0
2016-May-27 15:20N 39°02' E 001°37'0 0.0
2016-May-27 14:23N 39°02' E 001°37'0 0.0
2016-May-27 13:32N 39°02' E 001°37'2 1.6
2016-May-27 12:33N 39°01' E 001°37'10 0.5
2016-May-26 17:33N 38°54' E 001°27'1212.3
2016-May-26 16:33N 38°43' E 001°22'7 3.6
2016-May-26 14:33N 38°40' E 001°30'3 0.3
2016-May-26 04:32N 38°38' E 001°34'1413.9
2016-May-26 03:33N 38°48' E 001°46'1414.3
2016-May-26 02:33N 38°58' E 001°59'1514.7
2016-May-26 01:33N 39°09' E 002°11'1514.7
2016-May-26 00:33N 39°20' E 002°24'1515.1
2016-May-25 23:34N 39°31' E 002°37'2 2.4
2016-May-25 22:30N 39°33' E 002°38'0 0.0
2016-May-25 21:33N 39°33' E 002°38'0 0.0
2016-May-25 20:33N 39°33' E 002°38'0 0.0
2016-May-25 19:33N 39°33' E 002°38'0 0.0
2016-May-25 18:33N 39°33' E 002°38'10 8.6
2016-May-25 17:26N 39°28' E 002°28'1212.1
2016-May-25 16:25N 39°40' E 002°25'1315.4
2016-May-25 15:33N 39°48' E 002°40'27 2.2
2016-May-25 03:17N 40°06' E 003°05'1114.8
2016-May-25 02:33N 40°16' E 002°58'1414.3
2016-May-25 01:34N 40°28' E 002°50'1414.3
2016-May-25 00:33N 40°41' E 002°40'1414.1
2016-May-24 23:33N 40°53' E 002°32'33 1.1
2016-May-23 18:31N 41°23' E 002°11'16 0.5
2016-May-22 13:05N 41°31' E 002°28'0 0.0
2016-May-22 12:16N 41°31' E 002°28'  
Track history (hours):
 
Tides and Currents Weather Stations Pressure Air Temp Water Temp Dewpoint Dewpoint Depression Visibility Wind Speed Wind Dir Waves Ship Positions

Ilona

Last reported at 2016-May-29 18:30 UTC. Time now 2016-May-30 10:40 UTC.
Position N 41°23' E 002°11'.

Length 74 m; draft 3.8 m.

Type: Pleasure craft. MMSI: 503514000.

Date/timePositionNaut miles runAvg speedWind from/ knotsBaromVisibWave heightAir tempDewpointWater temp
2016-May-29 18:30N 41°23' E 002°11'0 0.0
2016-May-29 17:30N 41°23' E 002°11'0 0.0
2016-May-28 23:06N 41°23' E 002°11'0 0.0
2016-May-28 20:06N 41°23' E 002°11'10 0.6
2016-May-28 03:21N 41°13' E 002°11'1114.1
2016-May-28 02:33N 41°02' E 002°09'1413.8
2016-May-28 01:33N 40°48' E 002°06'1413.9
2016-May-28 00:33N 40°35' E 002°02'1414.0
2016-May-27 23:33N 40°21' E 001°58'1414.1
2016-May-27 22:33N 40°07' E 001°54'1414.0
2016-May-27 21:33N 39°53' E 001°51'1614.8
2016-May-27 20:27N 39°37' E 001°47'1415.4
2016-May-27 19:33N 39°24' E 001°43'1514.9
2016-May-27 18:33N 39°09' E 001°39'7 6.0
2016-May-27 17:23N 39°02' E 001°37'0 0.0
2016-May-27 16:26N 39°02' E 001°37'0 0.0
2016-May-27 15:20N 39°02' E 001°37'0 0.0
2016-May-27 14:23N 39°02' E 001°37'0 0.0
2016-May-27 13:32N 39°02' E 001°37'2 1.6
2016-May-27 12:33N 39°01' E 001°37'10 0.5
2016-May-26 17:33N 38°54' E 001°27'1212.3
2016-May-26 16:33N 38°43' E 001°22'7 3.6
2016-May-26 14:33N 38°40' E 001°30'3 0.3
2016-May-26 04:32N 38°38' E 001°34'1413.9
2016-May-26 03:33N 38°48' E 001°46'1414.3
2016-May-26 02:33N 38°58' E 001°59'1514.7
2016-May-26 01:33N 39°09' E 002°11'1514.7
2016-May-26 00:33N 39°20' E 002°24'1515.1
2016-May-25 23:34N 39°31' E 002°37'2 2.4
2016-May-25 22:30N 39°33' E 002°38'0 0.0
2016-May-25 21:33N 39°33' E 002°38'0 0.0
2016-May-25 20:33N 39°33' E 002°38'0 0.0
2016-May-25 19:33N 39°33' E 002°38'0 0.0
2016-May-25 18:33N 39°33' E 002°38'10 8.6
2016-May-25 17:26N 39°28' E 002°28'1212.1
2016-May-25 16:25N 39°40' E 002°25'1315.4
2016-May-25 15:33N 39°48' E 002°40'27 2.2
2016-May-25 03:17N 40°06' E 003°05'1114.8
2016-May-25 02:33N 40°16' E 002°58'1414.3
2016-May-25 01:34N 40°28' E 002°50'1414.3
2016-May-25 00:33N 40°41' E 002°40'1414.1
2016-May-24 23:33N 40°53' E 002°32'33 1.1
2016-May-23 18:31N 41°23' E 002°11'16 0.5
2016-May-22 13:05N 41°31' E 002°28'0 0.0
2016-May-22 12:16N 41°31' E 002°28'  

Dump ship's entire track history